Detall de PIREP

Printer-friendly versionPDF version

[2013/01/24 10:24:00]
Flight IATA:CT0001
Pilot Number:042
Company ICAO:CAT
Aircraft Type:C750/F
PAX:2
Departing Airport: LERS
Destination Airport: LEIB
Alternate Airport:LEPA
Online: VATSIM
Route:GARBI B31 TOLSO
Flight Level:F190
No Slew and time accel
No pause
Crash detect
Detect pilot in Cockpit between each 30 and 45 minutes
10:24 Zero fuel Weight: 22921 Lbs, Fuel Weight: 12965 Lbs
10:24 VATSIM:LERS 241000Z 23008G20KT 160V270 9999 FEW030 11/01 Q1003
10:24 VATSIM:LEIB 241000Z 28010KT 9999 FEW016 FEW030TCU BKN040 10/08 Q1006 NOSIG
10:25 VOICE CATALONIAN
10:30 Parking Brakes off
10:42 Take-off
10:42 Take off Weight: 35732 Lbs
10:42 Wind: 000º @ 000 Knots Heading: 248º
10:42 POS N41º 08´ 44´´ E001º 09´ 40´´
10:42 Gear Up: 155 Knots
10:42 Flaps:4 at 156 Knots
10:42 Flaps:3 at 184 Knots
10:43 Flaps:2 at 210 Knots
10:49 TOC
10:49 Fuel Weight: 12400 Lb
10:50 TOD
10:50 Fuel Weight: 12370 Lb
10:50 TOC
10:50 Fuel Weight: 12368 Lb
10:51 TOD
10:51 Fuel Weight: 12336 Lb
10:51 TOC
10:51 Fuel Weight: 12332 Lb
10:52 TOD
10:52 Fuel Weight: 12296 Lb
10:52 TOC
10:52 Fuel Weight: 12293 Lb
10:54 TOD
10:54 Fuel Weight: 12223 Lb
10:54 TOC
10:54 Fuel Weight: 12221 Lb
10:55 TOD
10:55 Fuel Weight: 12189 Lb
10:55 TOC
10:55 Fuel Weight: 12189 Lb
10:56 TOD
10:56 Fuel Weight: 12168 Lb
10:56 TOC
10:56 Fuel Weight: 12166 Lb
10:56 TOD
10:56 Fuel Weight: 12151 Lb
10:57 Wind:309º@044 Knots Heading: 168º Ground Speed: 465 Knots Altitude 18707 ft
10:57 TOC
10:57 Fuel Weight: 12147 Lb
10:57 TOD
10:57 Fuel Weight: 12130 Lb
10:57 TOC
10:57 Fuel Weight: 12128 Lb
10:59 TOD
10:59 Fuel Weight: 12075 Lb
10:59 TOC
10:59 Fuel Weight: 12071 Lb
11:00 TOD
11:00 Fuel Weight: 12038 Lb
11:00 TOC
11:00 Fuel Weight: 12032 Lb
11:02 TOD
11:02Fuel Weight: 11963 Lb
11:02 TOC
11:02 Fuel Weight: 11960 Lb
11:02 TOD
11:02 Fuel Weight: 11941 Lb
11:12 Wind:318º@016 Knots Heading: 203º Ground Speed: 254 Knots Altitude 5337 ft
11:13 Flaps:3 at 232 Knots
11:14 Gear Down: 184 Knots
11:14 Flaps:4 at 184 Knots
11:14 Flaps:5 at 167 Knots
11:18 TouchDown:Rate -458 ft/min Speed: 123 Knots
11:18 TOC
11:18 Fuel Weight: 11786 Lb
11:18 VATSIM:LEIB 241100Z 29019G30KT 9999 FEW025 12/06 Q1006 NOSIG
11:18 Land
11:18 Wind:212º@013 Knots
11:18 Heading: 240º
11:18 Flight Duration: 00:36
11:18 Landing Weight: 34705 Lbs
11:18 POS N38º 52´ 24´´ E001º 22´ 30´´
11:23 Parking brakes on
11:23 Block to Block Duration: 00:53
11:23 Final Fuel: 11737 Lbls
11:23 Spent Fuel: 1227 Lbls
11:23 Flight Length: 203 NM
11:23 TOD Land Length: 66 NM

Exportar CSV

Powered by Drupal - Modified by Danger4k